• Join FlightAware (Why Join?)
  • Login
  • US Flag 
Rudolph Flight #1: Scheduled 
08:40PM EST


 

Airport Tracker/Info


-or-


 

Live Flight TrackerFlight Track Log ✈ EGF4218 ✈ 21-Apr-2013 ✈ KORD - KTUL

Flight Track Log - Related Links

Times and Time Zones

All times are in EDT time to prevent confusion due to time zone crossing. See the EGF4218 flight status page for this flight to view local times or setup timezone preferences in your user account.

Time Position Orientation Groundspeed Altitude Reporting Facility
EDT Latitude Longitude Course Direction KTS MPH feet Rate Location/Type
10:37AM 41.9333 -87.9000 194° South 167 192 2,000  Level Chicago TRACON
10:38AM 41.8833 -87.9000 180° South 207 238 4,300 2,220 Climbing Chicago TRACON
10:40AM 41.7877 -88.2111 203° Southwest  Level Estimated
10:40AM 41.8131 -87.9317 199° South 234 269 7,000  Level Chicago Center
10:41AM 41.7229 -88.3121 197° South  Level Estimated
10:41AM 41.7467 -87.9728 205° Southwest 263 303 9,500  Level Chicago Center
10:42AM 41.6312 -88.2606 157° South  Level FlightAware Approximate
10:42AM 41.6747 -88.0167 204° Southwest 284 327 11,900  Level Chicago Center
10:43AM 41.5673 -88.3624 194° South  Level Estimated
10:43AM 41.6003 -88.0622 205° Southwest 295 339 14,300  Level Chicago Center
10:44AM 41.5222 -88.1094 204° Southwest 309 356 16,200 1,800 Climbing Chicago Center
10:45AM 41.4239 -88.1681 204° Southwest 336 387 18,000 1,320 Climbing Chicago Center
10:46AM 41.3367 -88.2114 200° South 344 396 19,000 1,200 Climbing Chicago Center
10:47AM 41.2428 -88.2531 198° South 355 409 20,600 1,500 Climbing Chicago Center
10:48AM 41.1475 -88.2969 199° South 361 415 22,100 1,440 Climbing Chicago Center
10:49AM 41.0508 -88.3419 199° South 367 422 23,600 1,320 Climbing Chicago Center
10:50AM 40.9522 -88.4419 217° Southwest 372 428 24,900 1,140 Climbing Chicago Center
10:51AM 40.8694 -88.5283 218° Southwest 378 435 26,000 1,020 Climbing Chicago Center
10:52AM 40.7844 -88.6136 217° Southwest 383 441 27,000 960 Climbing Chicago Center
10:53AM 40.6994 -88.6989 217° Southwest 385 443 28,000 960 Climbing Chicago Center
10:54AM 40.6144 -88.7819 217° Southwest 383 441 29,100 1,020 Climbing Chicago Center
10:55AM 40.5242 -88.8736 218° Southwest 383 441 30,200 1,020 Climbing Chicago Center
10:56AM 40.4378 -88.9600 217° Southwest 387 445 31,200 960 Climbing Chicago Center
10:57AM 40.3508 -89.0481 218° Southwest 392 451 32,300 1,020 Climbing Chicago Center
10:58AM 40.2611 -89.1353 217° Southwest 399 459 33,300 960 Climbing Chicago Center
10:59AM 40.1722 -89.2236 217° Southwest 400 460 34,300 780 Climbing Chicago Center
11:00AM 40.0836 -89.3108 217° Southwest 397 457 35,000 300 Climbing Chicago Center
11:01AM 39.9744 -89.4167 217° Southwest 407 468 35,000  Level Chicago Center
11:02AM 39.8842 -89.5036 216° Southwest 404 465 35,000  Level Chicago Center
11:03AM 39.7958 -89.5917 217° Southwest 399 459 35,000  Level Chicago Center
11:04AM 39.7050 -89.6778 216° Southwest 402 463 35,000  Level Chicago Center
11:05AM 39.6156 -89.7647 217° Southwest 401 461 35,000  Level Chicago Center
11:06AM 39.5278 -89.8497 217° Southwest 396 456 35,100 180 Climbing Chicago Center
11:07AM 39.4406 -89.9322 216° Southwest 396 456 35,500 420 Climbing Kansas City Center
11:08AM 39.3314 -90.0375 217° Southwest 405 466 36,000 240 Climbing Kansas City Center
11:09AM 39.2389 -90.1242 216° Southwest 411 473 36,000  Level Kansas City Center
11:11AM 39.1469 -90.2125 217° Southwest 413 475 36,000  Level Kansas City Center
11:12AM 39.0558 -90.2989 216° Southwest 411 473 36,000  Level Kansas City Center
11:13AM 38.9644 -90.3856 216° Southwest 410 472 36,000  Level Kansas City Center
11:14AM 38.8697 -90.4750 216° Southwest 408 470 36,000  Level Kansas City Center
11:15AM 38.8039 -90.5922 234° Southwest 402 463 36,000  Level Kansas City Center
11:16AM 38.7361 -90.7256 237° Southwest 402 463 36,000  Level Kansas City Center
11:17AM 38.6758 -90.8453 237° Southwest 403 464 36,000  Level Kansas City Center
11:18AM 38.6150 -90.9647 237° Southwest 405 466 36,000  Level Kansas City Center
11:19AM 38.5589 -91.0889 240° Southwest 405 466 36,000  Level Kansas City Center
11:20AM 38.4967 -91.2400 242° Southwest 404 465 36,000  Level Kansas City Center
11:21AM 38.4425 -91.3658 241° Southwest 404 465 36,000  Level Kansas City Center
11:22AM 38.3894 -91.4831 240° Southwest 406 467 36,000  Level Kansas City Center
11:23AM 38.3353 -91.6094 241° Southwest 406 467 36,000  Level Kansas City Center
11:24AM 38.2800 -91.7361 241° Southwest 407 468 36,000  Level Kansas City Center
11:25AM 38.2128 -91.8878 241° Southwest 408 470 36,000  Level Kansas City Center
11:26AM 38.1564 -92.0153 241° Southwest 411 473 36,000  Level Kansas City Center
11:27AM 38.0978 -92.1469 241° Southwest 411 473 36,000  Level Kansas City Center
11:28AM 38.0406 -92.2739 240° Southwest 415 478 36,000  Level Kansas City Center
11:29AM 37.9825 -92.4022 240° Southwest 418 481 36,000  Level Kansas City Center
11:30AM 37.9281 -92.5292 241° Southwest 414 476 36,000  Level Kansas City Center
11:31AM 37.8711 -92.6547 240° Southwest 413 475 36,000  Level Kansas City Center
11:32AM 37.8089 -92.7919 240° Southwest 412 474 36,000  Level Kansas City Center
11:33AM 37.7525 -92.9167 240° Southwest 409 471 36,000  Level Kansas City Center
11:34AM 37.6950 -93.0425 240° Southwest 411 473 36,000  Level Kansas City Center
11:35AM 37.6381 -93.1675 240° Southwest 410 472 36,000  Level Kansas City Center
11:36AM 37.5800 -93.2931 240° Southwest 411 473 36,000  Level Kansas City Center
11:37AM 37.5111 -93.4442 240° Southwest 413 475 36,000  Level Kansas City Center
11:38AM 37.4536 -93.5694 240° Southwest 412 474 36,000 -240 Level Kansas City Center
11:39AM 37.3950 -93.6936 239° Southwest 412 474 35,600 -960 Descending Kansas City Center
11:40AM 37.3375 -93.8167 240° Southwest 411 473 34,100 -1,440 Descending Kansas City Center
11:41AM 37.2800 -93.9406 240° Southwest 409 471 32,600 -1,500 Descending Kansas City Center
11:42AM 37.2219 -94.0639 239° Southwest 410 472 31,000 -2,040 Descending Kansas City Center
11:43AM 37.1642 -94.1869 240° Southwest 410 472 28,400 -2,820 Descending Kansas City Center
11:44AM 37.1025 -94.3150 239° Southwest 423 487 25,300 -3,300 Descending Kansas City Center
11:46AM 37.0319 -94.4639 239° Southwest 417 480 21,700 -3,240 Descending Kansas City Center
11:47AM 36.9767 -94.5789 239° Southwest 393 452 18,700 -2,820 Descending Kansas City Center
11:48AM 36.9214 -94.6936 239° Southwest 387 445 16,000 -2,520 Descending Kansas City Center
11:49AM 36.8681 -94.8056 239° Southwest 379 436 13,500 -2,160 Descending Kansas City Center
11:50AM 36.8169 -94.9114 239° Southwest 367 422 11,600 -1,860 Descending Kansas City Center
11:50AM 36.7747 -94.9942 238° Southwest 360 414 10,400 -1,500 Descending Kansas City Center
11:51AM 36.7650 -95.0167 242° Southwest 360 414 10,100 -300 Descending Kansas City Center
11:52AM 36.7156 -95.1181 239° Southwest 352 405 10,000 -480 Descending Kansas City Center
11:53AM 36.6742 -95.2014 238° Southwest 280 322 9,300 -1,200 Descending Kansas City Center
11:54AM 36.6328 -95.2775 236° Southwest 259 298 7,800 -1,800 Descending Kansas City Center
11:54AM 36.5986 -95.3419 237° Southwest 238 274 6,000 -1,860 Descending Kansas City Center
11:55AM 36.5892 -95.3619 240° Southwest 261 300 5,500 -1,560 Descending Kansas City Center
11:55AM 36.5611 -95.4150 237° Southwest 250 288 4,400 -1,500 Descending Kansas City Center
11:56AM 36.5519 -95.4328 237° Southwest 252 290 4,000 -1,260 Descending Kansas City Center
11:56AM 36.5231 -95.4825 234° Southwest 240 276 3,100 -1,020 Descending Kansas City Center
11:57AM 36.5164 -95.4986 243° Southwest 242 278 3,000 -120 Descending Kansas City Center
11:58AM 36.4889 -95.5494 236° Southwest 231 266 3,000  Level Kansas City Center
11:58AM 36.4808 -95.5642 236° Southwest 235 270 3,000  Level Kansas City Center
11:58AM 36.4531 -95.6167 237° Southwest 232 267 3,000  Level Kansas City Center
11:59AM 36.4397 -95.6439 239° Southwest 232 267 3,000  Level Kansas City Center
11:59AM 36.4189 -95.6836 237° Southwest 230 265 3,000  Level Kansas City Center
12:00PM 36.4050 -95.7100 237° Southwest 231 266 3,000  Level Kansas City Center
12:01PM 36.3825 -95.7481 234° Southwest 228 262 3,000 -120 Level Kansas City Center
12:01PM 36.3697 -95.7753 240° Southwest 229 264 2,900 -240 Descending Kansas City Center